Terminal Aerodrome Forecast
Issued by NWS Charleston, WV

Home | Current Version | Previous Version | Text Only | Print | Product List | Glossary On
Versions: 1 2 3 4 5 6 7 8 9 10 11 12 13 14 15 16 17 18 19 20 21 22 23 24 25 26 27
000
FTUS41 KRLX 282340
TAFBKW
TAF
KBKW 282340Z 2900/2924 32005KT 6SM SHRA SCT008 OVC060
      TEMPO 2900/2901 2SM SHRA BKN008 OVC060
     FM290300 VRB03KT 3SM BR BKN008
     FM290600 00000KT 3SM BR OVC004
     FM291400 30004KT P6SM SCT010
     FM291500 30005KT P6SM BKN020
     FM291600 30007KT P6SM VCTS BKN045CB=

USA.gov is the U.S. government's official web portal to all federal, state and local government web resources and services.